sensor_id;sensor_type;location;lat;lon;timestamp;temperature;humidity
63899;HTU21D;50070;-32.946;-60.652;2023-03-03T00:01:56;32.28;48.05
63899;HTU21D;50070;-32.946;-60.652;2023-03-03T00:04:24;32.13;48.07
63899;HTU21D;50070;-32.946;-60.652;2023-03-03T00:06:52;32.18;47.78
63899;HTU21D;50070;-32.946;-60.652;2023-03-03T00:09:20;32.11;47.89
63899;HTU21D;50070;-32.946;-60.652;2023-03-03T00:11:54;32.05;48.46
63899;HTU21D;50070;-32.946;-60.652;2023-03-03T00:14:29;32.08;47.90
63899;HTU21D;50070;-32.946;-60.652;2023-03-03T00:17:00;32.18;47.14
63899;HTU21D;50070;-32.946;-60.652;2023-03-03T00:19:37;32.33;46.35
63899;HTU21D;50070;-32.946;-60.652;2023-03-03T00:22:30;32.10;46.44
63899;HTU21D;50070;-32.946;-60.652;2023-03-03T00:27:49;32.38;45.53
63899;HTU21D;50070;-32.946;-60.652;2023-03-03T00:30:26;32.23;45.27
63899;HTU21D;50070;-32.946;-60.652;2023-03-03T00:32:54;32.23;45.56
63899;HTU21D;50070;-32.946;-60.652;2023-03-03T00:35:30;32.26;45.09
63899;HTU21D;50070;-32.946;-60.652;2023-03-03T00:38:09;32.39;44.76
63899;HTU21D;50070;-32.946;-60.652;2023-03-03T00:40:38;32.14;45.65
63899;HTU21D;50070;-32.946;-60.652;2023-03-03T00:43:18;32.08;46.15
63899;HTU21D;50070;-32.946;-60.652;2023-03-03T00:45:48;32.07;46.40
63899;HTU21D;50070;-32.946;-60.652;2023-03-03T00:50:56;31.88;47.20
63899;HTU21D;50070;-32.946;-60.652;2023-03-03T00:53:25;31.85;47.34
63899;HTU21D;50070;-32.946;-60.652;2023-03-03T00:55:52;31.90;46.72
63899;HTU21D;50070;-32.946;-60.652;2023-03-03T00:58:20;31.98;46.94
63899;HTU21D;50070;-32.946;-60.652;2023-03-03T01:00:52;31.97;46.76
63899;HTU21D;50070;-32.946;-60.652;2023-03-03T01:03:24;31.88;47.07
63899;HTU21D;50070;-32.946;-60.652;2023-03-03T01:05:51;31.72;47.68
63899;HTU21D;50070;-32.946;-60.652;2023-03-03T01:08:19;31.63;48.25
63899;HTU21D;50070;-32.946;-60.652;2023-03-03T01:10:51;31.49;48.41
63899;HTU21D;50070;-32.946;-60.652;2023-03-03T01:13:26;31.53;48.84
63899;HTU21D;50070;-32.946;-60.652;2023-03-03T01:15:53;31.59;48.41
63899;HTU21D;50070;-32.946;-60.652;2023-03-03T01:18:20;31.70;47.76
63899;HTU21D;50070;-32.946;-60.652;2023-03-03T01:20:47;31.70;48.05
63899;HTU21D;50070;-32.946;-60.652;2023-03-03T01:23:13;31.74;47.83
63899;HTU21D;50070;-32.946;-60.652;2023-03-03T01:25:40;31.55;49.60
63899;HTU21D;50070;-32.946;-60.652;2023-03-03T01:28:10;31.61;49.59
63899;HTU21D;50070;-32.946;-60.652;2023-03-03T01:30:37;31.58;49.73
63899;HTU21D;50070;-32.946;-60.652;2023-03-03T01:33:03;31.44;50.63
63899;HTU21D;50070;-32.946;-60.652;2023-03-03T01:35:30;31.43;50.38
63899;HTU21D;50070;-32.946;-60.652;2023-03-03T01:37:57;31.40;50.36
63899;HTU21D;50070;-32.946;-60.652;2023-03-03T01:40:28;31.45;50.15
63899;HTU21D;50070;-32.946;-60.652;2023-03-03T01:42:57;31.42;50.56
63899;HTU21D;50070;-32.946;-60.652;2023-03-03T01:45:28;31.35;50.39
63899;HTU21D;50070;-32.946;-60.652;2023-03-03T01:48:24;31.31;50.91
63899;HTU21D;50070;-32.946;-60.652;2023-03-03T01:53:22;31.11;51.88
63899;HTU21D;50070;-32.946;-60.652;2023-03-03T01:55:51;31.19;51.48
63899;HTU21D;50070;-32.946;-60.652;2023-03-03T01:58:37;31.23;51.88
63899;HTU21D;50070;-32.946;-60.652;2023-03-03T02:01:10;31.13;52.15
63899;HTU21D;50070;-32.946;-60.652;2023-03-03T02:03:41;30.85;52.91
63899;HTU21D;50070;-32.946;-60.652;2023-03-03T02:06:27;30.25;54.71
63899;HTU21D;50070;-32.946;-60.652;2023-03-03T02:09:44;30.24;54.67
63899;HTU21D;50070;-32.946;-60.652;2023-03-03T02:11:56;30.17;54.52
63899;HTU21D;50070;-32.946;-60.652;2023-03-03T02:14:24;30.28;53.86
63899;HTU21D;50070;-32.946;-60.652;2023-03-03T02:16:51;30.25;53.64
63899;HTU21D;50070;-32.946;-60.652;2023-03-03T02:22:41;30.19;52.99
63899;HTU21D;50070;-32.946;-60.652;2023-03-03T02:25:15;30.10;53.24
63899;HTU21D;50070;-32.946;-60.652;2023-03-03T02:27:48;30.27;52.51
63899;HTU21D;50070;-32.946;-60.652;2023-03-03T02:30:19;30.23;52.65
63899;HTU21D;50070;-32.946;-60.652;2023-03-03T02:32:46;30.24;53.13
63899;HTU21D;50070;-32.946;-60.652;2023-03-03T02:35:39;30.19;53.70
63899;HTU21D;50070;-32.946;-60.652;2023-03-03T02:38:36;29.88;55.10
63899;HTU21D;50070;-32.946;-60.652;2023-03-03T02:46:19;30.16;55.20
63899;HTU21D;50070;-32.946;-60.652;2023-03-03T02:48:46;30.02;55.30
63899;HTU21D;50070;-32.946;-60.652;2023-03-03T02:51:13;30.08;55.67
63899;HTU21D;50070;-32.946;-60.652;2023-03-03T02:53:40;30.18;54.84
63899;HTU21D;50070;-32.946;-60.652;2023-03-03T02:56:07;30.19;54.74
63899;HTU21D;50070;-32.946;-60.652;2023-03-03T02:58:36;30.19;55.24
63899;HTU21D;50070;-32.946;-60.652;2023-03-03T03:01:03;30.25;55.41
63899;HTU21D;50070;-32.946;-60.652;2023-03-03T03:03:30;30.11;55.43
63899;HTU21D;50070;-32.946;-60.652;2023-03-03T03:06:00;30.05;55.94
63899;HTU21D;50070;-32.946;-60.652;2023-03-03T03:08:29;30.31;54.63
63899;HTU21D;50070;-32.946;-60.652;2023-03-03T03:10:56;30.30;55.17
63899;HTU21D;50070;-32.946;-60.652;2023-03-03T03:13:26;30.42;53.46
63899;HTU21D;50070;-32.946;-60.652;2023-03-03T03:16:12;30.32;53.74
63899;HTU21D;50070;-32.946;-60.652;2023-03-03T03:18:42;30.26;53.42
63899;HTU21D;50070;-32.946;-60.652;2023-03-03T03:21:10;30.33;53.29
63899;HTU21D;50070;-32.946;-60.652;2023-03-03T03:23:40;30.38;52.22
63899;HTU21D;50070;-32.946;-60.652;2023-03-03T03:26:24;30.33;52.65
63899;HTU21D;50070;-32.946;-60.652;2023-03-03T03:28:51;30.28;52.42
63899;HTU21D;50070;-32.946;-60.652;2023-03-03T03:31:19;30.34;51.85
63899;HTU21D;50070;-32.946;-60.652;2023-03-03T03:33:48;30.31;51.22
63899;HTU21D;50070;-32.946;-60.652;2023-03-03T03:36:18;30.42;50.92
63899;HTU21D;50070;-32.946;-60.652;2023-03-03T03:39:02;30.26;51.61
63899;HTU21D;50070;-32.946;-60.652;2023-03-03T03:41:37;30.38;51.11
63899;HTU21D;50070;-32.946;-60.652;2023-03-03T03:44:04;30.21;51.09
63899;HTU21D;50070;-32.946;-60.652;2023-03-03T03:46:45;30.19;50.69
63899;HTU21D;50070;-32.946;-60.652;2023-03-03T03:49:20;30.10;51.40
63899;HTU21D;50070;-32.946;-60.652;2023-03-03T03:51:50;30.26;51.24
63899;HTU21D;50070;-32.946;-60.652;2023-03-03T03:54:17;30.18;52.27
63899;HTU21D;50070;-32.946;-60.652;2023-03-03T03:56:44;29.98;53.11
63899;HTU21D;50070;-32.946;-60.652;2023-03-03T03:59:10;29.83;53.33
63899;HTU21D;50070;-32.946;-60.652;2023-03-03T04:01:37;29.80;54.20
63899;HTU21D;50070;-32.946;-60.652;2023-03-03T04:04:04;29.74;53.67
63899;HTU21D;50070;-32.946;-60.652;2023-03-03T04:06:31;29.80;53.46
63899;HTU21D;50070;-32.946;-60.652;2023-03-03T04:08:58;30.04;52.11
63899;HTU21D;50070;-32.946;-60.652;2023-03-03T04:11:24;29.87;52.27
63899;HTU21D;50070;-32.946;-60.652;2023-03-03T04:13:51;29.75;51.91
63899;HTU21D;50070;-32.946;-60.652;2023-03-03T04:16:18;29.79;51.84
63899;HTU21D;50070;-32.946;-60.652;2023-03-03T04:18:45;29.83;51.56
63899;HTU21D;50070;-32.946;-60.652;2023-03-03T04:21:13;29.82;51.88
63899;HTU21D;50070;-32.946;-60.652;2023-03-03T04:23:39;29.81;52.01
63899;HTU21D;50070;-32.946;-60.652;2023-03-03T04:26:07;29.88;50.24
63899;HTU21D;50070;-32.946;-60.652;2023-03-03T04:28:34;29.73;50.05
63899;HTU21D;50070;-32.946;-60.652;2023-03-03T04:31:00;29.98;49.89
63899;HTU21D;50070;-32.946;-60.652;2023-03-03T04:33:28;29.90;49.57
63899;HTU21D;50070;-32.946;-60.652;2023-03-03T04:35:54;29.80;50.11
63899;HTU21D;50070;-32.946;-60.652;2023-03-03T04:38:21;29.76;49.62
63899;HTU21D;50070;-32.946;-60.652;2023-03-03T04:40:48;29.97;49.32
63899;HTU21D;50070;-32.946;-60.652;2023-03-03T04:43:15;29.78;49.61
63899;HTU21D;50070;-32.946;-60.652;2023-03-03T04:45:42;29.68;50.41
63899;HTU21D;50070;-32.946;-60.652;2023-03-03T04:48:09;29.73;49.21
63899;HTU21D;50070;-32.946;-60.652;2023-03-03T04:50:36;29.79;49.20
63899;HTU21D;50070;-32.946;-60.652;2023-03-03T04:53:03;29.81;49.00
63899;HTU21D;50070;-32.946;-60.652;2023-03-03T04:55:30;29.57;50.05
63899;HTU21D;50070;-32.946;-60.652;2023-03-03T04:57:56;29.46;49.56
63899;HTU21D;50070;-32.946;-60.652;2023-03-03T05:00:22;29.67;48.63
63899;HTU21D;50070;-32.946;-60.652;2023-03-03T05:02:49;29.42;48.95
63899;HTU21D;50070;-32.946;-60.652;2023-03-03T05:05:16;29.46;48.83
63899;HTU21D;50070;-32.946;-60.652;2023-03-03T05:07:42;29.51;48.86
63899;HTU21D;50070;-32.946;-60.652;2023-03-03T05:10:10;29.43;49.18
63899;HTU21D;50070;-32.946;-60.652;2023-03-03T05:12:37;29.53;49.21
63899;HTU21D;50070;-32.946;-60.652;2023-03-03T05:15:04;29.44;49.31
63899;HTU21D;50070;-32.946;-60.652;2023-03-03T05:17:31;29.33;49.54
63899;HTU21D;50070;-32.946;-60.652;2023-03-03T05:19:58;29.29;49.56
63899;HTU21D;50070;-32.946;-60.652;2023-03-03T05:22:25;29.38;49.43
63899;HTU21D;50070;-32.946;-60.652;2023-03-03T05:24:52;29.24;50.10
63899;HTU21D;50070;-32.946;-60.652;2023-03-03T05:27:19;29.04;50.69
63899;HTU21D;50070;-32.946;-60.652;2023-03-03T05:29:45;28.90;51.20
63899;HTU21D;50070;-32.946;-60.652;2023-03-03T05:32:12;28.82;50.85
63899;HTU21D;50070;-32.946;-60.652;2023-03-03T05:34:39;28.85;50.72
63899;HTU21D;50070;-32.946;-60.652;2023-03-03T05:37:06;28.72;50.83
63899;HTU21D;50070;-32.946;-60.652;2023-03-03T05:39:33;28.85;50.71
63899;HTU21D;50070;-32.946;-60.652;2023-03-03T05:42:00;28.67;51.23
63899;HTU21D;50070;-32.946;-60.652;2023-03-03T05:44:27;28.55;51.40
63899;HTU21D;50070;-32.946;-60.652;2023-03-03T05:46:54;28.61;51.52
63899;HTU21D;50070;-32.946;-60.652;2023-03-03T05:49:22;28.63;51.56
63899;HTU21D;50070;-32.946;-60.652;2023-03-03T05:51:49;28.41;52.20
63899;HTU21D;50070;-32.946;-60.652;2023-03-03T05:54:16;28.38;52.24
63899;HTU21D;50070;-32.946;-60.652;2023-03-03T05:56:43;28.30;52.27
63899;HTU21D;50070;-32.946;-60.652;2023-03-03T05:59:09;28.32;52.14
63899;HTU21D;50070;-32.946;-60.652;2023-03-03T06:01:36;28.29;52.31
63899;HTU21D;50070;-32.946;-60.652;2023-03-03T06:04:03;28.13;53.08
63899;HTU21D;50070;-32.946;-60.652;2023-03-03T06:06:30;28.20;53.22
63899;HTU21D;50070;-32.946;-60.652;2023-03-03T06:08:57;28.18;53.56
63899;HTU21D;50070;-32.946;-60.652;2023-03-03T06:11:24;28.12;53.91
63899;HTU21D;50070;-32.946;-60.652;2023-03-03T06:13:51;28.03;54.20
63899;HTU21D;50070;-32.946;-60.652;2023-03-03T06:16:17;28.21;54.10
63899;HTU21D;50070;-32.946;-60.652;2023-03-03T06:18:44;28.24;53.72
63899;HTU21D;50070;-32.946;-60.652;2023-03-03T06:21:11;28.10;53.96
63899;HTU21D;50070;-32.946;-60.652;2023-03-03T06:23:38;28.04;53.98
63899;HTU21D;50070;-32.946;-60.652;2023-03-03T06:26:05;28.03;54.04
63899;HTU21D;50070;-32.946;-60.652;2023-03-03T06:28:31;28.19;53.31
63899;HTU21D;50070;-32.946;-60.652;2023-03-03T06:30:58;27.93;53.89
63899;HTU21D;50070;-32.946;-60.652;2023-03-03T06:33:25;27.90;53.80
63899;HTU21D;50070;-32.946;-60.652;2023-03-03T06:35:53;27.94;54.00
63899;HTU21D;50070;-32.946;-60.652;2023-03-03T06:38:20;27.96;54.25
63899;HTU21D;50070;-32.946;-60.652;2023-03-03T06:40:47;27.90;54.32
63899;HTU21D;50070;-32.946;-60.652;2023-03-03T06:43:14;27.70;54.65
63899;HTU21D;50070;-32.946;-60.652;2023-03-03T06:45:40;27.75;54.50
63899;HTU21D;50070;-32.946;-60.652;2023-03-03T06:48:08;28.00;54.16
63899;HTU21D;50070;-32.946;-60.652;2023-03-03T06:50:35;27.82;54.78
63899;HTU21D;50070;-32.946;-60.652;2023-03-03T06:53:23;27.74;55.23
63899;HTU21D;50070;-32.946;-60.652;2023-03-03T06:55:48;27.65;55.12
63899;HTU21D;50070;-32.946;-60.652;2023-03-03T06:58:17;27.52;55.40
63899;HTU21D;50070;-32.946;-60.652;2023-03-03T07:00:55;27.40;55.99
63899;HTU21D;50070;-32.946;-60.652;2023-03-03T07:03:34;27.46;55.84
63899;HTU21D;50070;-32.946;-60.652;2023-03-03T07:06:01;27.44;56.00
63899;HTU21D;50070;-32.946;-60.652;2023-03-03T07:08:31;27.31;56.50
63899;HTU21D;50070;-32.946;-60.652;2023-03-03T07:11:00;27.47;55.84
63899;HTU21D;50070;-32.946;-60.652;2023-03-03T07:13:28;27.44;56.06
63899;HTU21D;50070;-32.946;-60.652;2023-03-03T07:16:01;27.34;56.36
63899;HTU21D;50070;-32.946;-60.652;2023-03-03T07:18:42;27.31;56.73
63899;HTU21D;50070;-32.946;-60.652;2023-03-03T07:23:52;27.50;56.00
63899;HTU21D;50070;-32.946;-60.652;2023-03-03T07:26:21;27.49;56.13
63899;HTU21D;50070;-32.946;-60.652;2023-03-03T07:28:55;27.31;56.37
63899;HTU21D;50070;-32.946;-60.652;2023-03-03T07:31:40;27.35;56.03
63899;HTU21D;50070;-32.946;-60.652;2023-03-03T07:34:29;27.37;56.10
63899;HTU21D;50070;-32.946;-60.652;2023-03-03T07:37:03;27.42;56.10
63899;HTU21D;50070;-32.946;-60.652;2023-03-03T07:39:35;27.30;56.21
63899;HTU21D;50070;-32.946;-60.652;2023-03-03T07:44:51;27.30;56.28
63899;HTU21D;50070;-32.946;-60.652;2023-03-03T07:47:27;27.05;56.84
63899;HTU21D;50070;-32.946;-60.652;2023-03-03T07:50:00;27.05;56.84
63899;HTU21D;50070;-32.946;-60.652;2023-03-03T07:52:38;27.02;56.92
63899;HTU21D;50070;-32.946;-60.652;2023-03-03T07:58:20;27.14;56.05
63899;HTU21D;50070;-32.946;-60.652;2023-03-03T08:01:23;27.21;55.68
63899;HTU21D;50070;-32.946;-60.652;2023-03-03T08:03:52;27.16;56.00
63899;HTU21D;50070;-32.946;-60.652;2023-03-03T08:09:24;27.22;55.36
63899;HTU21D;50070;-32.946;-60.652;2023-03-03T08:11:50;27.11;55.74
63899;HTU21D;50070;-32.946;-60.652;2023-03-03T08:14:26;27.22;55.49
63899;HTU21D;50070;-32.946;-60.652;2023-03-03T08:16:55;27.20;55.70
63899;HTU21D;50070;-32.946;-60.652;2023-03-03T08:19:22;26.92;56.39
63899;HTU21D;50070;-32.946;-60.652;2023-03-03T08:21:50;27.13;56.02
63899;HTU21D;50070;-32.946;-60.652;2023-03-03T08:24:17;27.01;56.69
63899;HTU21D;50070;-32.946;-60.652;2023-03-03T08:26:44;26.93;56.36
63899;HTU21D;50070;-32.946;-60.652;2023-03-03T08:29:10;26.98;56.52
63899;HTU21D;50070;-32.946;-60.652;2023-03-03T08:31:37;26.97;56.65
63899;HTU21D;50070;-32.946;-60.652;2023-03-03T08:34:04;26.86;56.90
63899;HTU21D;50070;-32.946;-60.652;2023-03-03T08:36:31;26.73;57.19
63899;HTU21D;50070;-32.946;-60.652;2023-03-03T08:38:57;26.66;58.05
63899;HTU21D;50070;-32.946;-60.652;2023-03-03T08:41:24;26.50;58.64
63899;HTU21D;50070;-32.946;-60.652;2023-03-03T08:43:51;26.68;58.38
63899;HTU21D;50070;-32.946;-60.652;2023-03-03T08:46:18;26.79;58.32
63899;HTU21D;50070;-32.946;-60.652;2023-03-03T08:48:44;26.83;58.73
63899;HTU21D;50070;-32.946;-60.652;2023-03-03T08:51:11;26.84;58.71
63899;HTU21D;50070;-32.946;-60.652;2023-03-03T08:53:37;26.63;60.06
63899;HTU21D;50070;-32.946;-60.652;2023-03-03T08:56:05;26.82;59.11
63899;HTU21D;50070;-32.946;-60.652;2023-03-03T08:58:32;26.76;58.55
63899;HTU21D;50070;-32.946;-60.652;2023-03-03T09:00:58;26.62;58.77
63899;HTU21D;50070;-32.946;-60.652;2023-03-03T09:03:25;26.80;57.74
63899;HTU21D;50070;-32.946;-60.652;2023-03-03T09:05:52;26.69;57.39
63899;HTU21D;50070;-32.946;-60.652;2023-03-03T09:08:19;26.65;58.27
63899;HTU21D;50070;-32.946;-60.652;2023-03-03T09:10:45;26.96;56.38
63899;HTU21D;50070;-32.946;-60.652;2023-03-03T09:13:17;26.91;55.97
63899;HTU21D;50070;-32.946;-60.652;2023-03-03T09:15:45;26.96;55.03
63899;HTU21D;50070;-32.946;-60.652;2023-03-03T09:18:21;26.91;55.29
63899;HTU21D;50070;-32.946;-60.652;2023-03-03T09:20:52;26.87;55.16
63899;HTU21D;50070;-32.946;-60.652;2023-03-03T09:23:35;27.01;54.60
63899;HTU21D;50070;-32.946;-60.652;2023-03-03T09:29:36;26.81;55.16
63899;HTU21D;50070;-32.946;-60.652;2023-03-03T09:34:50;26.84;55.15
63899;HTU21D;50070;-32.946;-60.652;2023-03-03T09:37:28;26.62;55.65
63899;HTU21D;50070;-32.946;-60.652;2023-03-03T09:40:00;26.92;54.98
63899;HTU21D;50070;-32.946;-60.652;2023-03-03T09:50:54;26.63;56.12
63899;HTU21D;50070;-32.946;-60.652;2023-03-03T09:54:04;26.64;56.01
63899;HTU21D;50070;-32.946;-60.652;2023-03-03T09:56:48;26.56;56.46
63899;HTU21D;50070;-32.946;-60.652;2023-03-03T09:59:28;26.50;56.81
63899;HTU21D;50070;-32.946;-60.652;2023-03-03T10:13:48;26.63;57.03
63899;HTU21D;50070;-32.946;-60.652;2023-03-03T10:35:27;26.63;57.85
63899;HTU21D;50070;-32.946;-60.652;2023-03-03T10:38:30;26.15;60.00
63899;HTU21D;50070;-32.946;-60.652;2023-03-03T10:41:15;26.37;59.88
63899;HTU21D;50070;-32.946;-60.652;2023-03-03T10:46:53;26.54;58.77
63899;HTU21D;50070;-32.946;-60.652;2023-03-03T10:52:21;26.69;58.93
63899;HTU21D;50070;-32.946;-60.652;2023-03-03T11:18:02;26.48;61.76
63899;HTU21D;50070;-32.946;-60.652;2023-03-03T11:29:20;26.52;61.40
63899;HTU21D;50070;-32.946;-60.652;2023-03-03T11:32:30;26.58;61.18
63899;HTU21D;50070;-32.946;-60.652;2023-03-03T11:37:45;26.93;60.00
63899;HTU21D;50070;-32.946;-60.652;2023-03-03T11:40:19;26.89;60.63
63899;HTU21D;50070;-32.946;-60.652;2023-03-03T11:45:54;27.10;59.48
63899;HTU21D;50070;-32.946;-60.652;2023-03-03T11:54:04;27.32;60.41
63899;HTU21D;50070;-32.946;-60.652;2023-03-03T11:56:39;27.30;60.21
63899;HTU21D;50070;-32.946;-60.652;2023-03-03T12:05:10;27.25;60.64
63899;HTU21D;50070;-32.946;-60.652;2023-03-03T12:16:28;27.37;59.84
63899;HTU21D;50070;-32.946;-60.652;2023-03-03T12:19:02;27.44;59.31
63899;HTU21D;50070;-32.946;-60.652;2023-03-03T12:24:29;28.16;57.58
63899;HTU21D;50070;-32.946;-60.652;2023-03-03T12:30:05;28.32;55.99
63899;HTU21D;50070;-32.946;-60.652;2023-03-03T12:40:49;29.01;54.32
63899;HTU21D;50070;-32.946;-60.652;2023-03-03T12:43:31;29.15;53.68
63899;HTU21D;50070;-32.946;-60.652;2023-03-03T12:46:12;29.00;54.35
63899;HTU21D;50070;-32.946;-60.652;2023-03-03T12:48:44;29.02;53.36
63899;HTU21D;50070;-32.946;-60.652;2023-03-03T12:56:57;29.38;52.69
63899;HTU21D;50070;-32.946;-60.652;2023-03-03T13:05:22;29.28;51.23
63899;HTU21D;50070;-32.946;-60.652;2023-03-03T13:08:09;28.94;52.06
63899;HTU21D;50070;-32.946;-60.652;2023-03-03T13:13:38;29.71;49.63
63899;HTU21D;50070;-32.946;-60.652;2023-03-03T13:16:24;30.25;49.10
63899;HTU21D;50070;-32.946;-60.652;2023-03-03T13:18:59;30.28;49.34
63899;HTU21D;50070;-32.946;-60.652;2023-03-03T13:24:22;29.79;51.37
63899;HTU21D;50070;-32.946;-60.652;2023-03-03T13:29:39;30.22;50.19
63899;HTU21D;50070;-32.946;-60.652;2023-03-03T13:35:00;30.38;49.49
63899;HTU21D;50070;-32.946;-60.652;2023-03-03T13:37:40;29.66;50.69
63899;HTU21D;50070;-32.946;-60.652;2023-03-03T13:40:22;29.91;49.63
63899;HTU21D;50070;-32.946;-60.652;2023-03-03T13:43:03;30.01;48.75
63899;HTU21D;50070;-32.946;-60.652;2023-03-03T13:48:49;30.33;48.04
63899;HTU21D;50070;-32.946;-60.652;2023-03-03T13:56:42;30.57;46.82
63899;HTU21D;50070;-32.946;-60.652;2023-03-03T14:03:20;30.37;47.79
63899;HTU21D;50070;-32.946;-60.652;2023-03-03T14:05:16;30.61;46.94
63899;HTU21D;50070;-32.946;-60.652;2023-03-03T14:08:07;30.36;47.55
63899;HTU21D;50070;-32.946;-60.652;2023-03-03T14:13:56;30.99;46.11
63899;HTU21D;50070;-32.946;-60.652;2023-03-03T14:24:31;31.66;44.77
63899;HTU21D;50070;-32.946;-60.652;2023-03-03T14:27:26;31.23;45.54
63899;HTU21D;50070;-32.946;-60.652;2023-03-03T14:29:53;31.56;44.68
63899;HTU21D;50070;-32.946;-60.652;2023-03-03T14:32:26;31.31;45.48
63899;HTU21D;50070;-32.946;-60.652;2023-03-03T14:34:58;31.89;44.07
63899;HTU21D;50070;-32.946;-60.652;2023-03-03T14:37:41;32.47;43.68
63899;HTU21D;50070;-32.946;-60.652;2023-03-03T14:47:45;32.86;42.54
63899;HTU21D;50070;-32.946;-60.652;2023-03-03T14:53:13;32.25;43.76
63899;HTU21D;50070;-32.946;-60.652;2023-03-03T14:55:43;31.82;44.00
63899;HTU21D;50070;-32.946;-60.652;2023-03-03T14:58:40;31.96;44.36
63899;HTU21D;50070;-32.946;-60.652;2023-03-03T15:01:34;31.67;45.73
63899;HTU21D;50070;-32.946;-60.652;2023-03-03T15:04:30;32.02;44.39
63899;HTU21D;50070;-32.946;-60.652;2023-03-03T15:06:57;32.30;44.05
63899;HTU21D;50070;-32.946;-60.652;2023-03-03T15:09:39;32.27;44.01
63899;HTU21D;50070;-32.946;-60.652;2023-03-03T15:12:45;32.17;44.56
63899;HTU21D;50070;-32.946;-60.652;2023-03-03T15:15:20;31.44;45.04
63899;HTU21D;50070;-32.946;-60.652;2023-03-03T15:31:02;33.15;41.78
63899;HTU21D;50070;-32.946;-60.652;2023-03-03T15:36:14;33.21;41.54
63899;HTU21D;50070;-32.946;-60.652;2023-03-03T15:38:50;32.85;42.32
63899;HTU21D;50070;-32.946;-60.652;2023-03-03T15:46:45;33.75;40.11
63899;HTU21D;50070;-32.946;-60.652;2023-03-03T15:55:14;32.57;42.90
63899;HTU21D;50070;-32.946;-60.652;2023-03-03T16:00:36;33.42;41.05
63899;HTU21D;50070;-32.946;-60.652;2023-03-03T16:03:42;32.77;42.05
63899;HTU21D;50070;-32.946;-60.652;2023-03-03T16:06:23;32.87;42.28
63899;HTU21D;50070;-32.946;-60.652;2023-03-03T16:12:03;32.57;42.15
63899;HTU21D;50070;-32.946;-60.652;2023-03-03T16:15:07;32.86;42.89
63899;HTU21D;50070;-32.946;-60.652;2023-03-03T16:17:53;33.27;40.73
63899;HTU21D;50070;-32.946;-60.652;2023-03-03T16:20:44;33.72;39.45
63899;HTU21D;50070;-32.946;-60.652;2023-03-03T16:39:09;33.96;38.43
63899;HTU21D;50070;-32.946;-60.652;2023-03-03T16:42:12;34.47;37.05
63899;HTU21D;50070;-32.946;-60.652;2023-03-03T16:53:47;33.49;39.83
63899;HTU21D;50070;-32.946;-60.652;2023-03-03T16:56:19;32.98;41.13
63899;HTU21D;50070;-32.946;-60.652;2023-03-03T17:04:28;33.70;39.16
63899;HTU21D;50070;-32.946;-60.652;2023-03-03T17:10:25;34.06;39.10
63899;HTU21D;50070;-32.946;-60.652;2023-03-03T17:15:37;34.17;38.69
63899;HTU21D;50070;-32.946;-60.652;2023-03-03T17:18:14;34.61;37.84
63899;HTU21D;50070;-32.946;-60.652;2023-03-03T17:32:36;34.12;38.98
63899;HTU21D;50070;-32.946;-60.652;2023-03-03T17:35:39;33.68;40.35
63899;HTU21D;50070;-32.946;-60.652;2023-03-03T17:38:18;33.92;39.51
63899;HTU21D;50070;-32.946;-60.652;2023-03-03T17:41:10;33.95;39.48
63899;HTU21D;50070;-32.946;-60.652;2023-03-03T17:46:44;33.64;40.11
63899;HTU21D;50070;-32.946;-60.652;2023-03-03T17:49:41;34.22;38.88
63899;HTU21D;50070;-32.946;-60.652;2023-03-03T18:12:29;34.19;38.99
63899;HTU21D;50070;-32.946;-60.652;2023-03-03T18:15:13;33.82;39.67
63899;HTU21D;50070;-32.946;-60.652;2023-03-03T18:26:02;34.09;38.59
63899;HTU21D;50070;-32.946;-60.652;2023-03-03T18:28:51;34.66;38.51
63899;HTU21D;50070;-32.946;-60.652;2023-03-03T18:31:26;34.56;38.24
63899;HTU21D;50070;-32.946;-60.652;2023-03-03T18:34:06;34.90;36.97
63899;HTU21D;50070;-32.946;-60.652;2023-03-03T18:36:34;35.18;36.18
63899;HTU21D;50070;-32.946;-60.652;2023-03-03T18:39:04;34.98;37.29
63899;HTU21D;50070;-32.946;-60.652;2023-03-03T18:41:34;34.89;36.83
63899;HTU21D;50070;-32.946;-60.652;2023-03-03T18:44:29;34.57;37.46
63899;HTU21D;50070;-32.946;-60.652;2023-03-03T18:46:57;34.20;38.50
63899;HTU21D;50070;-32.946;-60.652;2023-03-03T18:52:27;34.56;37.01
63899;HTU21D;50070;-32.946;-60.652;2023-03-03T18:54:59;34.77;37.21
63899;HTU21D;50070;-32.946;-60.652;2023-03-03T18:57:27;34.66;37.05
63899;HTU21D;50070;-32.946;-60.652;2023-03-03T18:59:56;34.70;37.65
63899;HTU21D;50070;-32.946;-60.652;2023-03-03T19:02:28;34.85;36.88
63899;HTU21D;50070;-32.946;-60.652;2023-03-03T19:12:55;34.92;35.84
63899;HTU21D;50070;-32.946;-60.652;2023-03-03T19:18:22;34.19;37.00
63899;HTU21D;50070;-32.946;-60.652;2023-03-03T19:21:02;34.65;36.05
63899;HTU21D;50070;-32.946;-60.652;2023-03-03T19:34:41;34.67;35.63
63899;HTU21D;50070;-32.946;-60.652;2023-03-03T19:40:53;34.66;36.05
63899;HTU21D;50070;-32.946;-60.652;2023-03-03T19:43:53;34.61;35.84
63899;HTU21D;50070;-32.946;-60.652;2023-03-03T19:52:28;34.81;35.35
63899;HTU21D;50070;-32.946;-60.652;2023-03-03T19:55:03;34.21;36.40
63899;HTU21D;50070;-32.946;-60.652;2023-03-03T20:06:09;34.76;35.70
63899;HTU21D;50070;-32.946;-60.652;2023-03-03T20:11:53;34.31;36.93
63899;HTU21D;50070;-32.946;-60.652;2023-03-03T20:14:43;34.86;35.46
63899;HTU21D;50070;-32.946;-60.652;2023-03-03T20:25:34;34.95;35.17
63899;HTU21D;50070;-32.946;-60.652;2023-03-03T20:28:34;34.27;36.39
63899;HTU21D;50070;-32.946;-60.652;2023-03-03T20:39:04;34.03;37.15
63899;HTU21D;50070;-32.946;-60.652;2023-03-03T20:41:36;34.11;36.55
63899;HTU21D;50070;-32.946;-60.652;2023-03-03T20:44:20;34.41;36.47
63899;HTU21D;50070;-32.946;-60.652;2023-03-03T21:03:52;33.78;36.70
63899;HTU21D;50070;-32.946;-60.652;2023-03-03T21:06:19;33.94;37.03
63899;HTU21D;50070;-32.946;-60.652;2023-03-03T21:08:52;34.07;36.73
63899;HTU21D;50070;-32.946;-60.652;2023-03-03T21:11:38;34.02;37.03
63899;HTU21D;50070;-32.946;-60.652;2023-03-03T21:14:26;33.73;37.35
63899;HTU21D;50070;-32.946;-60.652;2023-03-03T21:16:55;33.75;37.47
63899;HTU21D;50070;-32.946;-60.652;2023-03-03T21:19:34;33.95;37.03
63899;HTU21D;50070;-32.946;-60.652;2023-03-03T21:22:04;34.19;36.18
63899;HTU21D;50070;-32.946;-60.652;2023-03-03T21:24:51;33.94;36.53
63899;HTU21D;50070;-32.946;-60.652;2023-03-03T21:27:34;33.94;36.60
63899;HTU21D;50070;-32.946;-60.652;2023-03-03T21:30:14;33.71;37.39
63899;HTU21D;50070;-32.946;-60.652;2023-03-03T21:32:46;33.38;37.99
63899;HTU21D;50070;-32.946;-60.652;2023-03-03T21:35:21;33.72;37.62
63899;HTU21D;50070;-32.946;-60.652;2023-03-03T21:37:53;33.92;37.11
63899;HTU21D;50070;-32.946;-60.652;2023-03-03T21:40:26;33.55;37.82
63899;HTU21D;50070;-32.946;-60.652;2023-03-03T21:42:57;33.83;37.29
63899;HTU21D;50070;-32.946;-60.652;2023-03-03T21:45:25;33.96;37.18
63899;HTU21D;50070;-32.946;-60.652;2023-03-03T21:47:53;33.72;37.09
63899;HTU21D;50070;-32.946;-60.652;2023-03-03T21:50:23;33.82;38.17
63899;HTU21D;50070;-32.946;-60.652;2023-03-03T21:52:50;33.73;38.02